sensor_id;sensor_type;location;lat;lon;timestamp;temperature;humidity
37086;DHT22;23001;45.952;12.676;2024-03-06T00:00:57;11.20;99.90
37086;DHT22;23001;45.952;12.676;2024-03-06T00:03:23;11.20;99.90
37086;DHT22;23001;45.952;12.676;2024-03-06T00:05:52;11.20;99.90
37086;DHT22;23001;45.952;12.676;2024-03-06T00:08:20;11.30;99.90
37086;DHT22;23001;45.952;12.676;2024-03-06T00:10:46;11.40;99.90
37086;DHT22;23001;45.952;12.676;2024-03-06T00:13:18;11.40;99.90
37086;DHT22;23001;45.952;12.676;2024-03-06T00:15:47;11.40;99.90
37086;DHT22;23001;45.952;12.676;2024-03-06T00:18:15;11.40;99.90
37086;DHT22;23001;45.952;12.676;2024-03-06T00:20:47;11.40;99.90
37086;DHT22;23001;45.952;12.676;2024-03-06T00:23:17;11.40;99.90
37086;DHT22;23001;45.952;12.676;2024-03-06T00:25:43;11.40;99.90
37086;DHT22;23001;45.952;12.676;2024-03-06T00:28:09;11.30;99.90
37086;DHT22;23001;45.952;12.676;2024-03-06T00:34:17;11.30;99.90
37086;DHT22;23001;45.952;12.676;2024-03-06T00:36:59;11.30;99.90
37086;DHT22;23001;45.952;12.676;2024-03-06T00:39:28;11.30;99.90
37086;DHT22;23001;45.952;12.676;2024-03-06T00:41:57;11.30;99.90
37086;DHT22;23001;45.952;12.676;2024-03-06T00:44:23;11.20;99.90
37086;DHT22;23001;45.952;12.676;2024-03-06T00:46:50;11.20;99.90
37086;DHT22;23001;45.952;12.676;2024-03-06T00:49:26;11.20;99.90
37086;DHT22;23001;45.952;12.676;2024-03-06T00:51:52;11.20;99.90
37086;DHT22;23001;45.952;12.676;2024-03-06T00:54:20;11.20;99.90
37086;DHT22;23001;45.952;12.676;2024-03-06T00:56:46;11.20;99.90
37086;DHT22;23001;45.952;12.676;2024-03-06T00:59:15;11.20;99.90
37086;DHT22;23001;45.952;12.676;2024-03-06T01:01:40;11.20;99.90
37086;DHT22;23001;45.952;12.676;2024-03-06T01:04:06;11.30;99.90
37086;DHT22;23001;45.952;12.676;2024-03-06T01:06:35;11.20;99.90
37086;DHT22;23001;45.952;12.676;2024-03-06T01:09:13;11.20;99.90
37086;DHT22;23001;45.952;12.676;2024-03-06T01:11:42;11.30;99.90
37086;DHT22;23001;45.952;12.676;2024-03-06T01:14:32;11.30;99.90
37086;DHT22;23001;45.952;12.676;2024-03-06T01:17:55;11.30;99.90
37086;DHT22;23001;45.952;12.676;2024-03-06T01:20:35;11.40;99.90
37086;DHT22;23001;45.952;12.676;2024-03-06T01:23:04;11.30;99.90
37086;DHT22;23001;45.952;12.676;2024-03-06T01:25:36;11.30;99.90
37086;DHT22;23001;45.952;12.676;2024-03-06T01:28:09;11.30;99.90
37086;DHT22;23001;45.952;12.676;2024-03-06T01:30:58;11.30;99.90
37086;DHT22;23001;45.952;12.676;2024-03-06T01:33:25;11.20;99.90
37086;DHT22;23001;45.952;12.676;2024-03-06T01:36:11;11.20;99.90
37086;DHT22;23001;45.952;12.676;2024-03-06T01:38:43;11.20;99.90
37086;DHT22;23001;45.952;12.676;2024-03-06T01:41:14;11.10;99.90
37086;DHT22;23001;45.952;12.676;2024-03-06T01:43:40;11.10;99.90
37086;DHT22;23001;45.952;12.676;2024-03-06T01:46:08;11.20;99.90
37086;DHT22;23001;45.952;12.676;2024-03-06T01:48:38;11.10;99.90
37086;DHT22;23001;45.952;12.676;2024-03-06T01:51:06;11.10;99.90
37086;DHT22;23001;45.952;12.676;2024-03-06T01:53:35;11.10;99.90
37086;DHT22;23001;45.952;12.676;2024-03-06T01:56:02;11.10;99.90
37086;DHT22;23001;45.952;12.676;2024-03-06T01:58:29;11.10;99.90
37086;DHT22;23001;45.952;12.676;2024-03-06T02:00:56;11.10;99.90
37086;DHT22;23001;45.952;12.676;2024-03-06T02:03:25;11.10;99.90
37086;DHT22;23001;45.952;12.676;2024-03-06T02:05:52;11.10;99.90
37086;DHT22;23001;45.952;12.676;2024-03-06T02:08:19;11.10;99.90
37086;DHT22;23001;45.952;12.676;2024-03-06T02:10:45;11.10;99.90
37086;DHT22;23001;45.952;12.676;2024-03-06T02:13:13;11.10;99.90
37086;DHT22;23001;45.952;12.676;2024-03-06T02:15:45;11.10;99.90
37086;DHT22;23001;45.952;12.676;2024-03-06T02:18:11;11.10;99.90
37086;DHT22;23001;45.952;12.676;2024-03-06T02:20:51;11.10;99.90
37086;DHT22;23001;45.952;12.676;2024-03-06T02:23:25;11.10;99.90
37086;DHT22;23001;45.952;12.676;2024-03-06T02:25:51;11.10;99.90
37086;DHT22;23001;45.952;12.676;2024-03-06T02:28:17;11.10;99.90
37086;DHT22;23001;45.952;12.676;2024-03-06T02:30:50;11.10;99.90
37086;DHT22;23001;45.952;12.676;2024-03-06T02:33:16;11.00;99.90
37086;DHT22;23001;45.952;12.676;2024-03-06T02:35:43;11.10;99.90
37086;DHT22;23001;45.952;12.676;2024-03-06T02:38:13;11.00;99.90
37086;DHT22;23001;45.952;12.676;2024-03-06T02:40:39;11.00;99.90
37086;DHT22;23001;45.952;12.676;2024-03-06T02:43:06;11.10;99.90
37086;DHT22;23001;45.952;12.676;2024-03-06T02:45:34;11.00;99.90
37086;DHT22;23001;45.952;12.676;2024-03-06T02:51:18;11.00;99.90
37086;DHT22;23001;45.952;12.676;2024-03-06T02:53:51;11.00;99.90
37086;DHT22;23001;45.952;12.676;2024-03-06T02:56:23;11.00;99.90
37086;DHT22;23001;45.952;12.676;2024-03-06T02:58:48;11.00;99.90
37086;DHT22;23001;45.952;12.676;2024-03-06T03:01:15;11.00;99.90
37086;DHT22;23001;45.952;12.676;2024-03-06T03:03:44;11.00;99.90
37086;DHT22;23001;45.952;12.676;2024-03-06T03:06:13;11.00;99.90
37086;DHT22;23001;45.952;12.676;2024-03-06T03:08:40;11.00;99.90
37086;DHT22;23001;45.952;12.676;2024-03-06T03:11:05;10.90;99.90
37086;DHT22;23001;45.952;12.676;2024-03-06T03:14:10;11.00;99.90
37086;DHT22;23001;45.952;12.676;2024-03-06T03:16:36;10.90;99.90
37086;DHT22;23001;45.952;12.676;2024-03-06T03:19:03;10.90;99.90
37086;DHT22;23001;45.952;12.676;2024-03-06T03:21:44;10.80;99.90
37086;DHT22;23001;45.952;12.676;2024-03-06T03:24:49;10.80;99.90
37086;DHT22;23001;45.952;12.676;2024-03-06T03:31:13;10.80;99.90
37086;DHT22;23001;45.952;12.676;2024-03-06T03:33:39;10.80;99.90
37086;DHT22;23001;45.952;12.676;2024-03-06T03:36:06;10.80;99.90
37086;DHT22;23001;45.952;12.676;2024-03-06T03:38:38;10.80;99.90
37086;DHT22;23001;45.952;12.676;2024-03-06T03:41:10;10.80;99.90
37086;DHT22;23001;45.952;12.676;2024-03-06T03:43:36;10.80;99.90
37086;DHT22;23001;45.952;12.676;2024-03-06T03:46:02;10.80;99.90
37086;DHT22;23001;45.952;12.676;2024-03-06T03:48:29;10.90;99.90
37086;DHT22;23001;45.952;12.676;2024-03-06T03:51:16;10.80;99.90
37086;DHT22;23001;45.952;12.676;2024-03-06T03:57:13;10.90;99.90
37086;DHT22;23001;45.952;12.676;2024-03-06T03:59:39;10.90;99.90
37086;DHT22;23001;45.952;12.676;2024-03-06T04:02:46;10.80;99.90
37086;DHT22;23001;45.952;12.676;2024-03-06T04:05:12;10.80;99.90
37086;DHT22;23001;45.952;12.676;2024-03-06T04:07:38;10.70;99.90
37086;DHT22;23001;45.952;12.676;2024-03-06T04:10:04;10.70;99.90
37086;DHT22;23001;45.952;12.676;2024-03-06T04:12:30;10.70;99.90
37086;DHT22;23001;45.952;12.676;2024-03-06T04:14:56;10.70;99.90
37086;DHT22;23001;45.952;12.676;2024-03-06T04:17:22;10.70;99.90
37086;DHT22;23001;45.952;12.676;2024-03-06T04:30:18;10.60;99.90
37086;DHT22;23001;45.952;12.676;2024-03-06T04:33:29;10.50;99.90
37086;DHT22;23001;45.952;12.676;2024-03-06T04:35:55;10.50;99.90
37086;DHT22;23001;45.952;12.676;2024-03-06T04:41:46;10.50;99.90
37086;DHT22;23001;45.952;12.676;2024-03-06T04:44:16;10.50;99.90
37086;DHT22;23001;45.952;12.676;2024-03-06T04:46:56;10.50;99.90
37086;DHT22;23001;45.952;12.676;2024-03-06T04:49:26;10.50;99.90
37086;DHT22;23001;45.952;12.676;2024-03-06T04:51:52;10.50;99.90
37086;DHT22;23001;45.952;12.676;2024-03-06T04:54:20;10.50;99.90
37086;DHT22;23001;45.952;12.676;2024-03-06T04:56:47;10.40;99.90
37086;DHT22;23001;45.952;12.676;2024-03-06T04:59:21;10.40;99.90
37086;DHT22;23001;45.952;12.676;2024-03-06T05:01:47;10.40;99.90
37086;DHT22;23001;45.952;12.676;2024-03-06T05:04:17;10.40;99.90
37086;DHT22;23001;45.952;12.676;2024-03-06T05:06:43;10.30;99.90
37086;DHT22;23001;45.952;12.676;2024-03-06T05:09:10;10.30;99.90
37086;DHT22;23001;45.952;12.676;2024-03-06T05:11:40;10.20;99.90
37086;DHT22;23001;45.952;12.676;2024-03-06T05:14:07;10.30;99.90
37086;DHT22;23001;45.952;12.676;2024-03-06T05:16:36;10.20;99.90
37086;DHT22;23001;45.952;12.676;2024-03-06T05:19:03;10.20;99.90
37086;DHT22;23001;45.952;12.676;2024-03-06T05:25:07;10.20;99.90
37086;DHT22;23001;45.952;12.676;2024-03-06T05:27:33;10.20;99.90
37086;DHT22;23001;45.952;12.676;2024-03-06T05:30:05;10.20;99.90
37086;DHT22;23001;45.952;12.676;2024-03-06T05:32:31;10.20;99.90
37086;DHT22;23001;45.952;12.676;2024-03-06T05:35:03;10.10;99.90
37086;DHT22;23001;45.952;12.676;2024-03-06T05:38:20;10.20;99.90
37086;DHT22;23001;45.952;12.676;2024-03-06T05:40:50;10.20;99.90
37086;DHT22;23001;45.952;12.676;2024-03-06T05:43:21;10.10;99.90
37086;DHT22;23001;45.952;12.676;2024-03-06T05:45:55;10.10;99.90
37086;DHT22;23001;45.952;12.676;2024-03-06T05:48:24;10.10;99.90
37086;DHT22;23001;45.952;12.676;2024-03-06T05:50:53;10.10;99.90
37086;DHT22;23001;45.952;12.676;2024-03-06T05:53:25;10.10;99.90
37086;DHT22;23001;45.952;12.676;2024-03-06T05:55:55;10.00;99.90
37086;DHT22;23001;45.952;12.676;2024-03-06T05:58:43;10.00;99.90
37086;DHT22;23001;45.952;12.676;2024-03-06T06:01:21;10.00;99.90
37086;DHT22;23001;45.952;12.676;2024-03-06T06:04:04;10.00;99.90
37086;DHT22;23001;45.952;12.676;2024-03-06T06:06:38;10.00;99.90
37086;DHT22;23001;45.952;12.676;2024-03-06T06:09:09;10.00;99.90
37086;DHT22;23001;45.952;12.676;2024-03-06T06:11:55;10.00;99.90
37086;DHT22;23001;45.952;12.676;2024-03-06T06:14:24;10.10;99.90
37086;DHT22;23001;45.952;12.676;2024-03-06T06:16:52;10.00;99.90
37086;DHT22;23001;45.952;12.676;2024-03-06T06:19:18;10.00;99.90
37086;DHT22;23001;45.952;12.676;2024-03-06T06:21:44;10.00;99.90
37086;DHT22;23001;45.952;12.676;2024-03-06T06:24:09;10.00;99.90
37086;DHT22;23001;45.952;12.676;2024-03-06T06:26:38;10.00;99.90
37086;DHT22;23001;45.952;12.676;2024-03-06T06:29:03;10.00;99.90
37086;DHT22;23001;45.952;12.676;2024-03-06T06:31:32;10.00;99.90
37086;DHT22;23001;45.952;12.676;2024-03-06T06:33:58;10.00;99.90
37086;DHT22;23001;45.952;12.676;2024-03-06T06:36:24;10.00;99.90
37086;DHT22;23001;45.952;12.676;2024-03-06T06:38:50;9.90;99.90
37086;DHT22;23001;45.952;12.676;2024-03-06T06:41:17;9.90;99.90
37086;DHT22;23001;45.952;12.676;2024-03-06T06:43:43;9.90;99.90
37086;DHT22;23001;45.952;12.676;2024-03-06T06:46:08;9.80;99.90
37086;DHT22;23001;45.952;12.676;2024-03-06T06:48:34;9.80;99.90
37086;DHT22;23001;45.952;12.676;2024-03-06T06:51:00;9.80;99.90
37086;DHT22;23001;45.952;12.676;2024-03-06T06:53:30;9.80;99.90
37086;DHT22;23001;45.952;12.676;2024-03-06T06:55:56;9.80;99.90
37086;DHT22;23001;45.952;12.676;2024-03-06T06:58:22;9.90;99.90
37086;DHT22;23001;45.952;12.676;2024-03-06T07:00:48;9.90;99.90
37086;DHT22;23001;45.952;12.676;2024-03-06T07:03:14;9.90;99.90
37086;DHT22;23001;45.952;12.676;2024-03-06T07:05:39;9.90;99.90
37086;DHT22;23001;45.952;12.676;2024-03-06T07:08:07;9.90;99.90
37086;DHT22;23001;45.952;12.676;2024-03-06T07:10:33;9.90;99.90
37086;DHT22;23001;45.952;12.676;2024-03-06T07:13:01;9.90;99.90
37086;DHT22;23001;45.952;12.676;2024-03-06T07:15:28;9.90;99.90
37086;DHT22;23001;45.952;12.676;2024-03-06T07:17:54;9.90;99.90
37086;DHT22;23001;45.952;12.676;2024-03-06T07:20:19;10.00;99.90
37086;DHT22;23001;45.952;12.676;2024-03-06T07:22:45;10.00;99.90
37086;DHT22;23001;45.952;12.676;2024-03-06T07:25:11;9.90;99.90
37086;DHT22;23001;45.952;12.676;2024-03-06T07:27:37;9.90;99.90
37086;DHT22;23001;45.952;12.676;2024-03-06T07:30:03;9.90;99.90
37086;DHT22;23001;45.952;12.676;2024-03-06T07:32:29;9.90;99.90
37086;DHT22;23001;45.952;12.676;2024-03-06T07:34:55;9.90;99.90
37086;DHT22;23001;45.952;12.676;2024-03-06T07:37:20;10.00;99.90
37086;DHT22;23001;45.952;12.676;2024-03-06T07:39:46;9.90;99.90
37086;DHT22;23001;45.952;12.676;2024-03-06T07:42:12;9.90;99.90
37086;DHT22;23001;45.952;12.676;2024-03-06T07:44:38;9.90;99.90
37086;DHT22;23001;45.952;12.676;2024-03-06T07:47:04;10.00;99.90
37086;DHT22;23001;45.952;12.676;2024-03-06T07:49:29;10.00;99.90
37086;DHT22;23001;45.952;12.676;2024-03-06T07:51:57;10.00;99.90
37086;DHT22;23001;45.952;12.676;2024-03-06T07:54:23;10.00;99.90
37086;DHT22;23001;45.952;12.676;2024-03-06T07:56:49;10.00;99.90
37086;DHT22;23001;45.952;12.676;2024-03-06T07:59:14;10.10;99.90
37086;DHT22;23001;45.952;12.676;2024-03-06T08:01:42;10.00;99.90
37086;DHT22;23001;45.952;12.676;2024-03-06T08:04:07;10.10;99.90
37086;DHT22;23001;45.952;12.676;2024-03-06T08:06:33;10.10;99.90
37086;DHT22;23001;45.952;12.676;2024-03-06T08:08:59;10.10;99.90
37086;DHT22;23001;45.952;12.676;2024-03-06T08:11:25;10.00;99.90
37086;DHT22;23001;45.952;12.676;2024-03-06T08:13:59;10.00;99.90
37086;DHT22;23001;45.952;12.676;2024-03-06T08:16:25;10.00;99.90
37086;DHT22;23001;45.952;12.676;2024-03-06T08:18:51;10.00;99.90
37086;DHT22;23001;45.952;12.676;2024-03-06T08:21:16;10.00;99.90
37086;DHT22;23001;45.952;12.676;2024-03-06T08:23:42;10.10;99.90
37086;DHT22;23001;45.952;12.676;2024-03-06T08:26:08;10.10;99.90
37086;DHT22;23001;45.952;12.676;2024-03-06T08:28:34;10.20;99.90
37086;DHT22;23001;45.952;12.676;2024-03-06T08:31:00;10.50;99.90
37086;DHT22;23001;45.952;12.676;2024-03-06T08:33:26;10.70;99.90
37086;DHT22;23001;45.952;12.676;2024-03-06T08:35:52;10.80;99.90
37086;DHT22;23001;45.952;12.676;2024-03-06T08:38:17;11.00;99.90
37086;DHT22;23001;45.952;12.676;2024-03-06T08:40:43;11.20;99.90
37086;DHT22;23001;45.952;12.676;2024-03-06T08:43:12;11.30;99.90
37086;DHT22;23001;45.952;12.676;2024-03-06T08:45:38;11.50;99.90
37086;DHT22;23001;45.952;12.676;2024-03-06T08:48:04;11.40;99.90
37086;DHT22;23001;45.952;12.676;2024-03-06T08:50:31;11.20;99.90
37086;DHT22;23001;45.952;12.676;2024-03-06T08:52:57;11.30;99.90
37086;DHT22;23001;45.952;12.676;2024-03-06T08:55:22;11.10;99.90
37086;DHT22;23001;45.952;12.676;2024-03-06T08:57:48;11.00;99.90
37086;DHT22;23001;45.952;12.676;2024-03-06T09:00:16;11.00;99.90
37086;DHT22;23001;45.952;12.676;2024-03-06T09:02:43;11.10;99.90
37086;DHT22;23001;45.952;12.676;2024-03-06T09:05:09;11.00;99.90
37086;DHT22;23001;45.952;12.676;2024-03-06T09:07:39;11.10;99.90
37086;DHT22;23001;45.952;12.676;2024-03-06T09:10:11;11.10;99.90
37086;DHT22;23001;45.952;12.676;2024-03-06T09:12:37;11.10;99.90
37086;DHT22;23001;45.952;12.676;2024-03-06T09:15:07;10.90;99.90
37086;DHT22;23001;45.952;12.676;2024-03-06T09:17:43;10.90;99.90
37086;DHT22;23001;45.952;12.676;2024-03-06T09:20:10;10.90;99.90
37086;DHT22;23001;45.952;12.676;2024-03-06T09:22:37;10.90;99.90
37086;DHT22;23001;45.952;12.676;2024-03-06T09:25:04;11.00;99.90
37086;DHT22;23001;45.952;12.676;2024-03-06T09:27:30;11.00;99.90
37086;DHT22;23001;45.952;12.676;2024-03-06T09:29:56;11.10;99.90
37086;DHT22;23001;45.952;12.676;2024-03-06T09:32:22;11.00;99.90
37086;DHT22;23001;45.952;12.676;2024-03-06T09:34:47;11.00;99.90
37086;DHT22;23001;45.952;12.676;2024-03-06T09:37:13;11.00;99.90
37086;DHT22;23001;45.952;12.676;2024-03-06T09:39:40;11.00;99.90
37086;DHT22;23001;45.952;12.676;2024-03-06T09:42:06;11.10;99.90
37086;DHT22;23001;45.952;12.676;2024-03-06T09:44:33;11.10;99.90
37086;DHT22;23001;45.952;12.676;2024-03-06T09:47:01;11.10;99.90
37086;DHT22;23001;45.952;12.676;2024-03-06T09:49:29;11.20;99.90
37086;DHT22;23001;45.952;12.676;2024-03-06T09:52:00;11.20;99.90
37086;DHT22;23001;45.952;12.676;2024-03-06T09:54:34;11.30;99.90
37086;DHT22;23001;45.952;12.676;2024-03-06T09:57:02;11.40;99.90
37086;DHT22;23001;45.952;12.676;2024-03-06T09:59:28;11.40;99.90
37086;DHT22;23001;45.952;12.676;2024-03-06T10:01:55;11.40;99.90
37086;DHT22;23001;45.952;12.676;2024-03-06T10:04:22;11.40;99.90
37086;DHT22;23001;45.952;12.676;2024-03-06T10:06:49;11.40;99.90
37086;DHT22;23001;45.952;12.676;2024-03-06T10:09:18;11.30;99.90
37086;DHT22;23001;45.952;12.676;2024-03-06T10:11:44;11.30;99.90
37086;DHT22;23001;45.952;12.676;2024-03-06T10:14:11;11.20;99.90
37086;DHT22;23001;45.952;12.676;2024-03-06T10:16:37;11.10;99.90
37086;DHT22;23001;45.952;12.676;2024-03-06T10:19:16;11.10;99.90
37086;DHT22;23001;45.952;12.676;2024-03-06T10:21:44;11.00;99.90
37086;DHT22;23001;45.952;12.676;2024-03-06T10:24:20;10.90;99.90
37086;DHT22;23001;45.952;12.676;2024-03-06T10:26:47;11.00;99.90
37086;DHT22;23001;45.952;12.676;2024-03-06T10:29:17;10.80;99.90
37086;DHT22;23001;45.952;12.676;2024-03-06T10:31:54;10.80;99.90
37086;DHT22;23001;45.952;12.676;2024-03-06T10:34:25;10.70;99.90
37086;DHT22;23001;45.952;12.676;2024-03-06T10:39:20;10.80;99.90
37086;DHT22;23001;45.952;12.676;2024-03-06T10:41:54;10.90;99.90
37086;DHT22;23001;45.952;12.676;2024-03-06T10:44:24;10.90;99.90
37086;DHT22;23001;45.952;12.676;2024-03-06T10:47:02;11.00;99.90
37086;DHT22;23001;45.952;12.676;2024-03-06T10:49:29;11.00;99.90
37086;DHT22;23001;45.952;12.676;2024-03-06T10:52:03;11.10;99.90
37086;DHT22;23001;45.952;12.676;2024-03-06T10:54:32;11.10;99.90
37086;DHT22;23001;45.952;12.676;2024-03-06T10:57:01;11.00;99.90
37086;DHT22;23001;45.952;12.676;2024-03-06T10:59:28;11.00;99.90
37086;DHT22;23001;45.952;12.676;2024-03-06T11:01:58;11.00;99.90
37086;DHT22;23001;45.952;12.676;2024-03-06T11:04:31;11.00;99.90
37086;DHT22;23001;45.952;12.676;2024-03-06T11:07:03;11.00;99.90
37086;DHT22;23001;45.952;12.676;2024-03-06T11:09:35;11.00;99.90
37086;DHT22;23001;45.952;12.676;2024-03-06T11:12:01;11.10;99.90
37086;DHT22;23001;45.952;12.676;2024-03-06T11:14:31;11.10;99.90
37086;DHT22;23001;45.952;12.676;2024-03-06T11:17:04;11.00;99.90
37086;DHT22;23001;45.952;12.676;2024-03-06T11:28:27;11.10;99.90
37086;DHT22;23001;45.952;12.676;2024-03-06T11:30:58;11.20;99.90
37086;DHT22;23001;45.952;12.676;2024-03-06T11:33:36;11.20;99.90
37086;DHT22;23001;45.952;12.676;2024-03-06T11:36:24;11.20;99.90
37086;DHT22;23001;45.952;12.676;2024-03-06T11:39:07;11.30;99.90
37086;DHT22;23001;45.952;12.676;2024-03-06T11:44:14;11.30;99.90
37086;DHT22;23001;45.952;12.676;2024-03-06T11:46:48;11.40;99.90
37086;DHT22;23001;45.952;12.676;2024-03-06T11:49:25;11.50;99.90
37086;DHT22;23001;45.952;12.676;2024-03-06T11:51:51;11.60;99.90
37086;DHT22;23001;45.952;12.676;2024-03-06T11:54:18;11.60;99.90
37086;DHT22;23001;45.952;12.676;2024-03-06T11:56:49;11.70;99.90
37086;DHT22;23001;45.952;12.676;2024-03-06T11:59:29;11.80;99.90
37086;DHT22;23001;45.952;12.676;2024-03-06T12:01:56;11.90;99.90
37086;DHT22;23001;45.952;12.676;2024-03-06T12:04:23;12.00;99.90
37086;DHT22;23001;45.952;12.676;2024-03-06T12:06:50;12.00;99.90
37086;DHT22;23001;45.952;12.676;2024-03-06T12:09:16;12.10;99.90
37086;DHT22;23001;45.952;12.676;2024-03-06T12:11:42;12.20;99.90
37086;DHT22;23001;45.952;12.676;2024-03-06T12:14:18;12.30;99.90
37086;DHT22;23001;45.952;12.676;2024-03-06T12:16:57;12.40;99.90
37086;DHT22;23001;45.952;12.676;2024-03-06T12:19:25;12.30;99.90
37086;DHT22;23001;45.952;12.676;2024-03-06T12:21:52;12.40;99.90
37086;DHT22;23001;45.952;12.676;2024-03-06T12:24:19;12.40;99.90
37086;DHT22;23001;45.952;12.676;2024-03-06T12:26:46;12.50;99.90
37086;DHT22;23001;45.952;12.676;2024-03-06T12:29:18;12.50;99.90
37086;DHT22;23001;45.952;12.676;2024-03-06T12:31:49;12.50;99.90
37086;DHT22;23001;45.952;12.676;2024-03-06T12:34:15;12.70;99.90
37086;DHT22;23001;45.952;12.676;2024-03-06T12:36:45;12.70;99.90
37086;DHT22;23001;45.952;12.676;2024-03-06T12:39:15;12.80;99.90
37086;DHT22;23001;45.952;12.676;2024-03-06T12:41:49;12.70;99.90
37086;DHT22;23001;45.952;12.676;2024-03-06T12:44:16;12.60;99.90
37086;DHT22;23001;45.952;12.676;2024-03-06T12:46:44;12.50;99.90
37086;DHT22;23001;45.952;12.676;2024-03-06T12:49:15;12.60;99.90
37086;DHT22;23001;45.952;12.676;2024-03-06T12:51:40;12.70;99.90
37086;DHT22;23001;45.952;12.676;2024-03-06T12:54:07;12.70;99.90
37086;DHT22;23001;45.952;12.676;2024-03-06T12:56:34;12.70;99.90
37086;DHT22;23001;45.952;12.676;2024-03-06T12:59:02;12.80;99.90
37086;DHT22;23001;45.952;12.676;2024-03-06T13:01:28;12.80;99.90
37086;DHT22;23001;45.952;12.676;2024-03-06T13:03:53;12.80;99.90
37086;DHT22;23001;45.952;12.676;2024-03-06T13:06:19;12.80;99.90
37086;DHT22;23001;45.952;12.676;2024-03-06T13:08:47;12.70;99.90
37086;DHT22;23001;45.952;12.676;2024-03-06T13:11:12;12.70;99.90
37086;DHT22;23001;45.952;12.676;2024-03-06T13:13:38;12.80;99.90
37086;DHT22;23001;45.952;12.676;2024-03-06T13:16:10;12.90;99.90
37086;DHT22;23001;45.952;12.676;2024-03-06T13:18:42;13.10;99.90
37086;DHT22;23001;45.952;12.676;2024-03-06T13:21:31;13.20;99.90
37086;DHT22;23001;45.952;12.676;2024-03-06T13:23:56;13.10;99.90
37086;DHT22;23001;45.952;12.676;2024-03-06T13:26:22;13.00;99.90
37086;DHT22;23001;45.952;12.676;2024-03-06T13:28:48;13.10;99.90
37086;DHT22;23001;45.952;12.676;2024-03-06T13:31:14;13.10;99.90
37086;DHT22;23001;45.952;12.676;2024-03-06T13:33:40;13.10;99.90
37086;DHT22;23001;45.952;12.676;2024-03-06T13:36:06;13.20;99.90
37086;DHT22;23001;45.952;12.676;2024-03-06T13:38:33;13.20;99.90
37086;DHT22;23001;45.952;12.676;2024-03-06T13:40:59;13.20;99.90
37086;DHT22;23001;45.952;12.676;2024-03-06T13:43:28;13.20;99.90
37086;DHT22;23001;45.952;12.676;2024-03-06T13:45:54;13.20;99.90
37086;DHT22;23001;45.952;12.676;2024-03-06T13:48:19;13.20;99.90
37086;DHT22;23001;45.952;12.676;2024-03-06T13:50:46;13.20;99.90
37086;DHT22;23001;45.952;12.676;2024-03-06T13:53:12;13.30;99.90
37086;DHT22;23001;45.952;12.676;2024-03-06T13:55:37;13.30;99.90
37086;DHT22;23001;45.952;12.676;2024-03-06T13:58:03;13.30;99.90
37086;DHT22;23001;45.952;12.676;2024-03-06T14:00:32;13.30;99.90
37086;DHT22;23001;45.952;12.676;2024-03-06T14:03:11;13.30;99.90
37086;DHT22;23001;45.952;12.676;2024-03-06T14:05:40;13.30;99.90
37086;DHT22;23001;45.952;12.676;2024-03-06T14:08:06;13.10;99.90
37086;DHT22;23001;45.952;12.676;2024-03-06T14:10:36;13.10;99.90
37086;DHT22;23001;45.952;12.676;2024-03-06T14:13:05;13.20;99.90
37086;DHT22;23001;45.952;12.676;2024-03-06T14:15:32;13.20;99.90
37086;DHT22;23001;45.952;12.676;2024-03-06T14:17:58;13.20;99.90
37086;DHT22;23001;45.952;12.676;2024-03-06T14:20:24;13.20;99.90
37086;DHT22;23001;45.952;12.676;2024-03-06T14:23:00;13.10;99.90
37086;DHT22;23001;45.952;12.676;2024-03-06T14:25:26;13.20;99.90
37086;DHT22;23001;45.952;12.676;2024-03-06T14:27:54;13.10;99.90
37086;DHT22;23001;45.952;12.676;2024-03-06T14:30:20;13.10;99.90
37086;DHT22;23001;45.952;12.676;2024-03-06T14:32:46;13.20;99.90
37086;DHT22;23001;45.952;12.676;2024-03-06T14:35:12;13.20;99.90
37086;DHT22;23001;45.952;12.676;2024-03-06T14:40:29;13.20;99.90
37086;DHT22;23001;45.952;12.676;2024-03-06T14:42:56;13.20;99.90
37086;DHT22;23001;45.952;12.676;2024-03-06T14:45:22;13.10;99.90
37086;DHT22;23001;45.952;12.676;2024-03-06T14:47:48;13.10;99.90
37086;DHT22;23001;45.952;12.676;2024-03-06T14:50:14;13.10;99.90
37086;DHT22;23001;45.952;12.676;2024-03-06T14:52:40;13.20;99.90
37086;DHT22;23001;45.952;12.676;2024-03-06T14:55:06;13.10;99.90
37086;DHT22;23001;45.952;12.676;2024-03-06T14:57:34;13.10;99.90
37086;DHT22;23001;45.952;12.676;2024-03-06T15:00:00;13.00;99.90
37086;DHT22;23001;45.952;12.676;2024-03-06T15:02:26;13.00;99.90
37086;DHT22;23001;45.952;12.676;2024-03-06T15:04:51;13.00;99.90
37086;DHT22;23001;45.952;12.676;2024-03-06T15:07:17;13.00;99.90
37086;DHT22;23001;45.952;12.676;2024-03-06T15:09:44;13.00;99.90
37086;DHT22;23001;45.952;12.676;2024-03-06T15:12:09;12.90;99.90
37086;DHT22;23001;45.952;12.676;2024-03-06T15:14:35;12.80;99.90
37086;DHT22;23001;45.952;12.676;2024-03-06T15:17:01;12.80;99.90
37086;DHT22;23001;45.952;12.676;2024-03-06T15:19:26;12.80;99.90
37086;DHT22;23001;45.952;12.676;2024-03-06T15:21:52;12.70;99.90
37086;DHT22;23001;45.952;12.676;2024-03-06T15:24:18;12.60;99.90
37086;DHT22;23001;45.952;12.676;2024-03-06T15:26:44;12.60;99.90
37086;DHT22;23001;45.952;12.676;2024-03-06T15:29:09;12.60;99.90
37086;DHT22;23001;45.952;12.676;2024-03-06T15:31:37;12.60;99.90
37086;DHT22;23001;45.952;12.676;2024-03-06T15:34:03;12.50;99.90
37086;DHT22;23001;45.952;12.676;2024-03-06T15:36:29;12.50;99.90
37086;DHT22;23001;45.952;12.676;2024-03-06T15:38:54;12.40;99.90
37086;DHT22;23001;45.952;12.676;2024-03-06T15:41:25;12.40;99.90
37086;DHT22;23001;45.952;12.676;2024-03-06T15:43:51;12.30;99.90
37086;DHT22;23001;45.952;12.676;2024-03-06T15:46:17;12.30;99.90
37086;DHT22;23001;45.952;12.676;2024-03-06T15:48:42;12.30;99.90
37086;DHT22;23001;45.952;12.676;2024-03-06T15:51:08;12.20;99.90
37086;DHT22;23001;45.952;12.676;2024-03-06T15:53:34;12.20;99.90
37086;DHT22;23001;45.952;12.676;2024-03-06T15:56:00;12.20;99.90
37086;DHT22;23001;45.952;12.676;2024-03-06T15:58:25;12.10;99.90
37086;DHT22;23001;45.952;12.676;2024-03-06T16:00:51;12.10;99.90
37086;DHT22;23001;45.952;12.676;2024-03-06T16:03:17;12.00;99.90
37086;DHT22;23001;45.952;12.676;2024-03-06T16:05:43;12.00;99.90
37086;DHT22;23001;45.952;12.676;2024-03-06T16:08:08;12.00;99.90
37086;DHT22;23001;45.952;12.676;2024-03-06T16:10:35;12.00;99.90
37086;DHT22;23001;45.952;12.676;2024-03-06T16:13:00;12.00;99.90
37086;DHT22;23001;45.952;12.676;2024-03-06T16:15:26;12.00;99.90
37086;DHT22;23001;45.952;12.676;2024-03-06T16:17:53;11.90;99.90